»·PEaware :: SWA835 KBUR-KLAS

SWA835 :: KBUR-KLAS

FLIGHT INFORMATION

Flight Status: Arrived
Operator:
Southwest Airlines
More flights by this operator :: More flights under this callsign
Pilot: Pratham R. (19019)
Aircraft: BOEING 737-800
(B738)
More flights by this aircraft type
Origin: KBUR Bob Hope-Burbank
United States
Destination: KLAS McCarran Intl
United States
More flights between these airports :: More routes between these airports
Route: +VNY3 DAG MISEN KEPEC6
File this flight plan on PilotEdge
Remarks: PBN / A1B1C1D1S1S2 DOF / 180625 REG / N8305E OPR / SWA PER / C RMK / TCAS SIMBRIEF
Altitude:
(Current/Filed)
31,000ft
Speed:
(Current/Filed)
473kts
Departed: 01-Aug-18 09:47 AM
Arrived: 01-Aug-18 10:32 AM
Distance/Time
Traveled:
194nm/0:44
Distance/Time
To Go:
Arrived

Flight Plot

Page will automatically refresh every two minutes.

Flight plan parsing failed; only flown route is shown


Map Options




Map Legend


Flown Route
Filed Route
Departure Airport
Arrival Airport
Navaid (VOR, NDB)
Fix

Horizontal Profiles

Position Reports

Time Latitude Longitude Heading Altitude Ground
Speed
01-Aug-18 08:45 34.196762 -118.350111 179 697ft 0kts
01-Aug-18 08:46 34.196762 -118.350111 179 697ft 0kts
01-Aug-18 08:47 34.196762 -118.350111 179 697ft 0kts
01-Aug-18 08:48 34.196762 -118.350111 179 697ft 0kts
01-Aug-18 08:49 34.196762 -118.350111 179 697ft 0kts
01-Aug-18 08:50 34.196762 -118.350111 179 697ft 0kts
01-Aug-18 08:51 34.196762 -118.350111 179 697ft 0kts
01-Aug-18 08:52 34.196762 -118.350111 179 697ft 0kts
01-Aug-18 08:53 34.196762 -118.350111 179 697ft 0kts
01-Aug-18 08:54 34.196762 -118.350111 179 697ft 0kts
01-Aug-18 08:55 34.196762 -118.350111 179 697ft 0kts
01-Aug-18 08:56 34.196762 -118.350111 179 697ft 0kts
01-Aug-18 08:57 34.196762 -118.350111 179 697ft 0kts
01-Aug-18 08:58 34.196762 -118.350111 179 697ft 0kts
01-Aug-18 08:59 34.196762 -118.350111 179 697ft 0kts
01-Aug-18 09:00 34.196762 -118.350111 179 697ft 0kts
01-Aug-18 09:01 34.196762 -118.350111 179 697ft 0kts
01-Aug-18 09:02 34.196762 -118.350111 179 697ft 0kts
01-Aug-18 09:03 34.196762 -118.350111 179 697ft 0kts
01-Aug-18 09:04 34.196762 -118.350111 179 697ft 0kts
01-Aug-18 09:05 34.196762 -118.350111 179 697ft 0kts
01-Aug-18 09:06 34.196762 -118.350111 179 697ft 0kts
01-Aug-18 09:07 34.196762 -118.350111 179 697ft 0kts
01-Aug-18 09:08 34.196762 -118.350111 179 697ft 0kts
01-Aug-18 09:09 34.196762 -118.350111 179 697ft 0kts
01-Aug-18 09:10 34.196762 -118.350111 179 697ft 0kts
01-Aug-18 09:11 34.196762 -118.350111 179 697ft 0kts
01-Aug-18 09:12 34.196762 -118.350111 179 697ft 0kts
01-Aug-18 09:13 34.196762 -118.350111 179 697ft 0kts
01-Aug-18 09:14 34.196762 -118.350111 179 697ft 0kts
01-Aug-18 09:15 34.196762 -118.350111 179 697ft 0kts
01-Aug-18 09:16 34.196762 -118.350111 179 697ft 0kts
01-Aug-18 09:17 34.196762 -118.350111 179 697ft 0kts
01-Aug-18 09:18 34.196762 -118.350111 179 697ft 0kts
01-Aug-18 09:19 34.196762 -118.350111 179 697ft 0kts
01-Aug-18 09:20 34.196762 -118.350111 179 697ft 0kts
01-Aug-18 09:21 34.196762 -118.350111 179 697ft 0kts
01-Aug-18 09:22 34.196762 -118.350111 179 697ft 0kts
01-Aug-18 09:23 34.196762 -118.350111 179 697ft 0kts
01-Aug-18 09:24 34.196762 -118.350111 179 697ft 0kts
01-Aug-18 09:25 34.196762 -118.350111 179 697ft 0kts
01-Aug-18 09:26 34.196762 -118.350111 179 697ft 0kts
01-Aug-18 09:27 34.196762 -118.350111 179 697ft 0kts
01-Aug-18 09:28 34.196762 -118.350111 179 697ft 0kts
01-Aug-18 09:29 34.196762 -118.350111 179 697ft 0kts
01-Aug-18 09:30 34.196762 -118.350111 179 697ft 0kts
01-Aug-18 09:31 34.196762 -118.350111 179 697ft 0kts
01-Aug-18 09:32 34.197017 -118.350012 221 697ft 2kts
01-Aug-18 09:33 34.197146 -118.349606 271 696ft 0kts
01-Aug-18 09:34 34.197146 -118.349606 271 696ft 0kts
01-Aug-18 09:35 34.197146 -118.349606 271 696ft 0kts
01-Aug-18 09:36 34.197146 -118.349606 271 696ft 0kts
01-Aug-18 09:37 34.197155 -118.350258 271 697ft 7kts
01-Aug-18 09:38 34.197213 -118.354186 270 705ft 17kts
01-Aug-18 09:39 34.200181 -118.355728 345 716ft 2kts
01-Aug-18 09:40 34.201089 -118.355993 347 719ft 2kts
01-Aug-18 09:41 34.202219 -118.356298 347 724ft 10kts
01-Aug-18 09:42 34.206749 -118.357531 347 744ft 23kts
01-Aug-18 09:43 34.209865 -118.358407 346 759ft 8kts
01-Aug-18 09:44 34.211666 -118.359090 315 767ft 0kts
01-Aug-18 09:45 34.211666 -118.359090 315 767ft 0kts
01-Aug-18 09:46 34.211666 -118.359090 315 767ft 0kts
01-Aug-18 09:47 34.211946 -118.359857 260 769ft 10kts
01-Aug-18 09:48 34.205734 -118.358633 167 743ft 118kts
01-Aug-18 09:49 34.157616 -118.365948 224 2774ft 236kts
01-Aug-18 09:50 34.107888 -118.425934 225 3998ft 266kts
01-Aug-18 09:51 34.099873 -118.509856 307 6761ft 295kts
01-Aug-18 09:52 34.173430 -118.539176 352 10359ft 302kts
01-Aug-18 09:53 34.263228 -118.553958 352 12382ft 363kts
01-Aug-18 09:54 34.366374 -118.551515 34 14031ft 385kts
01-Aug-18 09:55 34.407829 -118.434554 63 15839ft 405kts
01-Aug-18 09:56 34.469813 -118.321406 55 19511ft 417kts
01-Aug-18 09:57 34.541084 -118.207422 53 22486ft 438kts
01-Aug-18 09:58 34.614801 -118.088147 59 23082ft 442kts
01-Aug-18 09:59 34.645204 -117.946649 83 23082ft 438kts
01-Aug-18 10:00 34.661131 -117.797484 83 25389ft 452kts
01-Aug-18 10:01 34.693132 -117.647514 73 27983ft 470kts
01-Aug-18 10:02 34.732128 -117.495765 74 30865ft 470kts
01-Aug-18 10:03 34.770432 -117.345514 74 31110ft 465kts
01-Aug-18 10:04 34.808397 -117.195580 74 31088ft 466kts
01-Aug-18 10:05 34.846071 -117.045778 74 31051ft 468kts
01-Aug-18 10:06 34.882748 -116.899001 73 31037ft 468kts
01-Aug-18 10:07 34.920467 -116.747215 73 31038ft 472kts
01-Aug-18 10:08 34.961017 -116.594982 63 28748ft 476kts
01-Aug-18 10:09 35.047647 -116.470112 45 25763ft 488kts
01-Aug-18 10:10 35.139892 -116.355620 45 23373ft 485kts
01-Aug-18 10:11 35.232062 -116.240489 46 21583ft 472kts
01-Aug-18 10:12 35.322421 -116.127077 46 19854ft 459kts
01-Aug-18 10:13 35.410107 -116.016570 46 18173ft 447kts
01-Aug-18 10:14 35.495342 -115.908756 46 16538ft 436kts
01-Aug-18 10:15 35.577860 -115.804018 46 14929ft 425kts
01-Aug-18 10:16 35.653825 -115.707411 47 13451ft 336kts
01-Aug-18 10:17 35.715262 -115.629003 47 12903ft 318kts
01-Aug-18 10:18 35.787067 -115.573278 5 12478ft 318kts
01-Aug-18 10:19 35.874550 -115.567925 2 12099ft 315kts
01-Aug-18 10:20 35.959984 -115.553591 32 11691ft 310kts
01-Aug-18 10:21 36.003519 -115.466974 70 11310ft 280kts
01-Aug-18 10:22 36.030771 -115.377636 78 11052ft 280kts
01-Aug-18 10:23 36.026264 -115.285772 97 10000ft 273kts
01-Aug-18 10:24 36.019274 -115.198419 97 9034ft 260kts
01-Aug-18 10:25 36.013686 -115.119845 96 8362ft 247kts
01-Aug-18 10:26 36.008279 -115.038257 94 8031ft 248kts
01-Aug-18 10:27 36.007525 -114.954849 62 7854ft 250kts
01-Aug-18 10:28 36.064068 -114.912653 350 6212ft 236kts
01-Aug-18 10:29 36.082248 -114.976838 254 4290ft 239kts
01-Aug-18 10:30 36.073266 -115.047597 272 2983ft 183kts
01-Aug-18 10:31 36.073579 -115.097741 270 2309ft 145kts
01-Aug-18 10:32 36.073659 -115.140954 270 2088ft 56kts
01-Aug-18 10:33 36.075428 -115.146510 5 2104ft 0kts
01-Aug-18 10:34 36.075428 -115.146510 5 2104ft 0kts
01-Aug-18 10:35 36.075428 -115.146510 5 2104ft 0kts
01-Aug-18 10:36 36.077174 -115.146551 349 2103ft 21kts
01-Aug-18 10:37 36.079780 -115.145839 337 2093ft 0kts
01-Aug-18 10:38 36.079780 -115.145839 337 2093ft 0kts
01-Aug-18 10:39 36.079780 -115.145839 337 2093ft 0kts
01-Aug-18 10:40 36.079780 -115.145839 337 2093ft 0kts
01-Aug-18 10:41 36.079780 -115.145839 337 2093ft 0kts
01-Aug-18 10:42 36.079780 -115.145839 337 2093ft 0kts
01-Aug-18 10:43 36.079780 -115.145839 337 2093ft 0kts
01-Aug-18 10:44 36.079780 -115.145839 337 2093ft 0kts
01-Aug-18 10:45 36.079780 -115.145839 337 2093ft 0kts
01-Aug-18 10:46 36.079780 -115.145839 337 2093ft 0kts
01-Aug-18 10:47 36.079780 -115.145839 337 2093ft 0kts

Navigation Log

Ident Type
Flight plan parsing failed, navigation log unavailable